createdAt,value
2019-04-20T00:00:59.579Z,22.13
2019-04-20T00:03:36.827Z,22.12
2019-04-20T00:06:01.339Z,22.18
2019-04-20T00:08:34.539Z,22.19
2019-04-20T00:11:08.002Z,22.21
2019-04-20T00:13:42.653Z,22.25
2019-04-20T00:16:04.191Z,22.30
2019-04-20T00:18:41.293Z,22.26
2019-04-20T00:21:22.689Z,22.25
2019-04-20T00:23:53.532Z,22.24
2019-04-20T00:26:59.633Z,22.15
2019-04-20T00:29:21.576Z,22.19
2019-04-20T00:31:45.765Z,22.17
2019-04-20T00:34:13.867Z,22.14
2019-04-20T00:36:36.982Z,22.08
2019-04-20T00:39:09.874Z,22.01
2019-04-20T00:41:44.124Z,21.93
2019-04-20T00:44:13.046Z,21.87
2019-04-20T00:46:53.482Z,21.81
2019-04-20T00:49:27.606Z,21.75
2019-04-20T00:52:05.153Z,21.66
2019-04-20T00:54:15.850Z,21.55
2019-04-20T00:56:47.852Z,21.53
2019-04-20T00:59:27.585Z,21.50
2019-04-20T01:02:04.582Z,21.54
2019-04-20T01:04:38.784Z,21.56
2019-04-20T01:07:06.216Z,21.55
2019-04-20T01:09:24.611Z,21.47
2019-04-20T01:11:54.454Z,21.39
2019-04-20T01:14:36.078Z,21.36
2019-04-20T01:17:02.144Z,21.36
2019-04-20T01:19:26.118Z,21.31
2019-04-20T01:22:01.609Z,21.25
2019-04-20T01:24:31.348Z,21.20
2019-04-20T01:27:00.777Z,21.18
2019-04-20T01:29:36.896Z,21.16
2019-04-20T01:32:12.527Z,21.11
2019-04-20T01:34:41.743Z,21.07
2019-04-20T01:37:17.922Z,21.03
2019-04-20T01:39:37.165Z,20.99
2019-04-20T01:42:04.476Z,20.96
2019-04-20T01:44:41.271Z,20.90
2019-04-20T01:47:08.008Z,20.79
2019-04-20T01:49:38.435Z,20.67
2019-04-20T01:52:16.099Z,20.60
2019-04-20T01:54:56.439Z,20.62
2019-04-20T01:57:21.382Z,20.68
2019-04-20T01:59:55.256Z,20.73
2019-04-20T02:02:23.269Z,20.74
2019-04-20T02:05:04.869Z,20.72
2019-04-20T02:07:35.096Z,20.70
2019-04-20T02:10:03.073Z,20.78
2019-04-20T02:12:33.829Z,20.79
2019-04-20T02:15:03.983Z,20.84
2019-04-20T02:17:39.291Z,20.88
2019-04-20T02:20:22.784Z,20.99
2019-04-20T02:22:48.697Z,21.11
2019-04-20T02:25:05.834Z,21.13
2019-04-20T02:27:43.301Z,21.10
2019-04-20T02:30:39.057Z,21.12
2019-04-20T02:33:37.557Z,21.18
2019-04-20T02:35:48.014Z,21.28
2019-04-20T02:38:58.428Z,21.35
2019-04-20T02:40:51.091Z,21.42
2019-04-20T02:45:44.201Z,21.46
2019-04-20T02:48:21.707Z,21.47
2019-04-20T02:50:50.023Z,21.52
2019-04-20T02:53:32.982Z,21.56
2019-04-20T02:55:58.534Z,21.58
2019-04-20T02:58:23.873Z,21.58
2019-04-20T03:00:49.643Z,21.56
2019-04-20T03:03:08.988Z,21.55
2019-04-20T03:05:36.773Z,21.57
2019-04-20T03:08:13.662Z,21.55
2019-04-20T03:10:54.994Z,21.55
2019-04-20T03:13:19.769Z,21.57
2019-04-20T03:15:48.175Z,21.59
2019-04-20T03:18:22.307Z,21.63
2019-04-20T03:20:52.789Z,21.63
2019-04-20T03:23:30.081Z,21.58
2019-04-20T03:26:05.389Z,21.54
2019-04-20T03:28:50.569Z,21.50
2019-04-20T03:31:56.236Z,21.47
2019-04-20T03:34:47.463Z,21.47
2019-04-20T03:36:41.530Z,21.44
2019-04-20T03:39:09.692Z,21.41
2019-04-20T03:41:27.307Z,21.34
2019-04-20T03:43:50.123Z,21.29
2019-04-20T03:46:30.083Z,21.23
2019-04-20T03:49:04.505Z,21.15
2019-04-20T03:51:48.942Z,21.12
2019-04-20T03:54:22.242Z,21.08
2019-04-20T03:57:13.146Z,21.03
2019-04-20T03:59:57.672Z,21.02
2019-04-20T04:02:49.412Z,21.00
2019-04-20T04:05:17.681Z,20.98
2019-04-20T04:07:41.535Z,20.97
2019-04-20T04:10:22.784Z,20.92
2019-04-20T04:13:09.887Z,20.90
2019-04-20T04:15:44.243Z,20.93
2019-04-20T04:18:19.704Z,20.93
2019-04-20T04:20:49.718Z,20.89
2019-04-20T04:23:32.315Z,20.85
2019-04-20T04:26:05.994Z,20.81
2019-04-20T04:28:35.106Z,20.81
2019-04-20T04:31:07.864Z,20.85
2019-04-20T04:36:04.640Z,20.80
2019-04-20T04:38:44.681Z,20.76
2019-04-20T04:43:41.315Z,20.67
2019-04-20T04:45:55.400Z,20.64
2019-04-20T04:48:31.011Z,20.63
2019-04-20T04:51:02.717Z,20.62
2019-04-20T04:53:40.740Z,20.61
2019-04-20T04:56:04.895Z,20.63
2019-04-20T04:58:29.840Z,20.65
2019-04-20T05:01:05.708Z,20.66
2019-04-20T05:03:44.857Z,20.65
2019-04-20T05:06:25.338Z,20.70
2019-04-20T05:08:44.009Z,20.73
2019-04-20T05:11:08.994Z,20.75
2019-04-20T05:13:45.909Z,20.84
2019-04-20T05:16:26.070Z,20.87
2019-04-20T05:19:05.109Z,20.90
2019-04-20T05:21:31.334Z,20.94
2019-04-20T05:24:04.791Z,21.00
2019-04-20T05:26:42.420Z,21.04
2019-04-20T05:29:01.153Z,21.08
2019-04-20T05:31:32.774Z,21.11
2019-04-20T05:36:46.454Z,21.16
2019-04-20T05:39:22.026Z,21.19
2019-04-20T05:41:48.191Z,21.25
2019-04-20T05:44:16.963Z,21.28
2019-04-20T05:46:56.654Z,21.31
2019-04-20T05:49:28.712Z,21.36
2019-04-20T05:52:24.043Z,21.42
2019-04-20T05:54:26.809Z,21.46
2019-04-20T05:56:56.460Z,21.47
2019-04-20T05:59:28.352Z,21.51
2019-04-20T06:02:07.526Z,21.57
2019-04-20T06:04:31.449Z,21.63
2019-04-20T06:06:59.713Z,21.69
2019-04-20T06:09:34.218Z,21.76
2019-04-20T06:14:25.792Z,21.85
2019-04-20T06:17:11.354Z,21.91
2019-04-20T06:19:53.144Z,21.98
2019-04-20T06:22:23.098Z,22.04
2019-04-20T06:24:52.791Z,22.13
2019-04-20T06:27:14.574Z,22.21
2019-04-20T06:29:49.780Z,22.25
2019-04-20T06:32:20.316Z,22.30
2019-04-20T06:34:42.599Z,22.38
2019-04-20T06:37:21.306Z,22.49
2019-04-20T06:39:54.840Z,22.57
2019-04-20T06:42:22.874Z,22.62
2019-04-20T06:44:50.510Z,22.67
2019-04-20T06:47:27.264Z,22.69
2019-04-20T06:49:51.612Z,22.76
2019-04-20T06:52:27.367Z,22.87
2019-04-20T06:55:30.570Z,22.95
2019-04-20T06:57:45.343Z,23.07
2019-04-20T07:00:15.365Z,23.13
2019-04-20T07:12:45.358Z,23.70
2019-04-20T07:15:21.349Z,23.85
2019-04-20T07:17:57.618Z,23.98
2019-04-20T07:20:42.591Z,24.09
2019-04-20T07:23:18.177Z,24.22
2019-04-20T07:25:37.490Z,24.33
2019-04-20T07:28:09.801Z,24.49
2019-04-20T07:30:35.524Z,24.62
2019-04-20T07:33:19.454Z,24.77
2019-04-20T07:35:46.095Z,24.90
2019-04-20T07:38:23.432Z,25.06
2019-04-20T07:40:40.145Z,25.21
2019-04-20T07:43:07.976Z,25.36
2019-04-20T07:45:37.225Z,25.47
2019-04-20T07:48:16.714Z,25.58
2019-04-20T07:50:37.554Z,25.79
2019-04-20T07:53:15.944Z,26.23
2019-04-20T07:55:50.794Z,26.99
2019-04-20T07:58:09.774Z,27.83
2019-04-20T08:00:55.133Z,28.73
2019-04-20T08:03:29.576Z,29.65
2019-04-20T08:05:49.863Z,30.43
2019-04-20T08:08:30.455Z,31.08
2019-04-20T08:10:53.853Z,31.59
2019-04-20T08:16:14.277Z,32.37
2019-04-20T08:21:06.372Z,33.22
2019-04-20T08:23:33.698Z,33.62
2019-04-20T08:25:58.398Z,33.99
2019-04-20T08:28:33.969Z,34.22
2019-04-20T08:31:09.386Z,34.35
2019-04-20T08:34:04.470Z,34.55
2019-04-20T08:36:25.759Z,34.76
2019-04-20T08:41:23.456Z,35.24
2019-04-20T08:46:25.123Z,35.41
2019-04-20T08:48:56.507Z,35.52
2019-04-20T08:51:25.513Z,35.70
2019-04-20T08:53:59.984Z,35.87
2019-04-20T08:56:21.906Z,35.99
2019-04-20T08:58:41.456Z,35.97
2019-04-20T09:01:18.414Z,36.14
2019-04-20T09:03:51.209Z,36.28
2019-04-20T09:06:31.246Z,36.48
2019-04-20T09:08:55.518Z,36.65
2019-04-20T09:11:31.196Z,36.87
2019-04-20T09:13:50.316Z,37.20
2019-04-20T09:16:21.448Z,37.43
2019-04-20T09:18:56.903Z,37.65
2019-04-20T09:21:29.696Z,37.53
2019-04-20T09:24:14.568Z,37.84
2019-04-20T09:26:43.356Z,38.17
2019-04-20T09:29:09.509Z,38.36
2019-04-20T09:31:40.838Z,38.59
2019-04-20T09:34:20.540Z,38.97
2019-04-20T09:37:09.592Z,39.42
2019-04-20T09:39:44.989Z,39.73
2019-04-20T09:42:12.021Z,39.60
2019-04-20T09:44:46.026Z,39.59
2019-04-20T09:47:13.977Z,39.67
2019-04-20T09:49:55.461Z,39.83
2019-04-20T09:52:29.119Z,39.98
2019-04-20T09:55:02.753Z,40.21
2019-04-20T09:57:33.539Z,40.26
2019-04-20T10:00:07.238Z,40.48
2019-04-20T10:02:24.893Z,40.80
2019-04-20T10:04:51.452Z,41.12
2019-04-20T10:07:24.265Z,41.46
2019-04-20T10:09:52.195Z,41.54
2019-04-20T10:12:22.007Z,41.55
2019-04-20T10:14:51.490Z,41.82
2019-04-20T10:17:20.865Z,42.07
2019-04-20T10:19:51.312Z,42.24
2019-04-20T10:22:20.814Z,42.34
2019-04-20T10:24:52.139Z,42.29
2019-04-20T10:27:21.720Z,42.35
2019-04-20T10:29:51.470Z,42.41
2019-04-20T10:32:25.101Z,42.74
2019-04-20T10:34:52.718Z,42.85
2019-04-20T10:37:23.996Z,42.85
2019-04-20T10:39:54.301Z,42.78
2019-04-20T10:42:23.974Z,42.85
2019-04-20T10:44:55.857Z,42.90
2019-04-20T10:47:25.256Z,43.04
2019-04-20T10:49:56.340Z,43.26
2019-04-20T10:52:25.678Z,43.52
2019-04-20T10:54:56.538Z,43.68
2019-04-20T10:57:26.084Z,43.89
2019-04-20T10:59:55.524Z,44.13
2019-04-20T11:02:25.884Z,44.28
2019-04-20T11:04:56.883Z,44.27
2019-04-20T11:07:28.259Z,43.99
2019-04-20T11:10:09.121Z,43.80
2019-04-20T11:12:28.466Z,44.06
2019-04-20T11:14:58.689Z,44.33
2019-04-20T11:17:29.962Z,44.52
2019-04-20T11:19:59.194Z,44.74
2019-04-20T11:22:28.743Z,44.71
2019-04-20T11:24:58.577Z,44.73
2019-04-20T11:27:28.164Z,44.83
2019-04-20T11:29:58.233Z,44.92
2019-04-20T11:32:28.352Z,44.97
2019-04-20T11:35:01.036Z,44.97
2019-04-20T11:37:29.106Z,44.90
2019-04-20T11:39:59.036Z,44.66
2019-04-20T11:42:29.888Z,44.62
2019-04-20T11:45:00.440Z,44.70
2019-04-20T11:47:31.462Z,44.99
2019-04-20T11:50:01.743Z,45.26
2019-04-20T11:52:33.261Z,45.24
2019-04-20T11:55:02.436Z,45.30
2019-04-20T11:57:33.368Z,45.37
2019-04-20T12:00:03.645Z,45.53
2019-04-20T12:02:47.798Z,45.55
2019-04-20T12:05:28.125Z,45.58
2019-04-20T12:08:05.120Z,44.92
2019-04-20T12:10:35.023Z,45.31
2019-04-20T12:13:05.854Z,45.63
2019-04-20T12:15:38.621Z,45.55
2019-04-20T12:18:07.576Z,45.78
2019-04-20T12:20:36.993Z,46.10
2019-04-20T12:23:08.556Z,46.49
2019-04-20T12:25:40.883Z,46.77
2019-04-20T12:28:09.565Z,47.02
2019-04-20T12:30:39.737Z,47.08
2019-04-20T12:33:09.526Z,47.10
2019-04-20T12:35:40.266Z,47.15
2019-04-20T12:38:10.376Z,47.08
2019-04-20T12:40:42.010Z,47.23
2019-04-20T12:43:13.278Z,47.11
2019-04-20T12:45:44.159Z,47.18
2019-04-20T12:48:13.492Z,47.34
2019-04-20T12:50:43.827Z,47.51
2019-04-20T12:53:14.736Z,47.45
2019-04-20T12:55:44.368Z,46.96
2019-04-20T12:58:14.581Z,46.82
2019-04-20T13:00:50.174Z,46.38
2019-04-20T13:03:19.647Z,46.32
2019-04-20T13:05:51.905Z,46.55
2019-04-20T13:08:28.562Z,46.71
2019-04-20T13:11:04.639Z,46.99
2019-04-20T13:13:36.539Z,46.90
2019-04-20T13:16:18.422Z,46.84
2019-04-20T13:18:55.382Z,46.87
2019-04-20T13:21:25.091Z,46.67
2019-04-20T13:23:55.284Z,46.60
2019-04-20T13:26:27.044Z,46.58
2019-04-20T13:28:59.177Z,46.85
2019-04-20T13:31:33.772Z,47.04
2019-04-20T13:34:03.668Z,46.89
2019-04-20T13:36:36.059Z,46.85
2019-04-20T13:39:08.230Z,46.72
2019-04-20T13:41:38.124Z,46.80
2019-04-20T13:44:08.356Z,46.91
2019-04-20T13:46:38.958Z,47.17
2019-04-20T13:49:09.312Z,47.44
2019-04-20T13:51:39.158Z,47.83
2019-04-20T13:54:15.085Z,48.20
2019-04-20T13:56:43.822Z,47.49
2019-04-20T13:59:30.031Z,46.23
2019-04-20T14:02:13.049Z,46.23
2019-04-20T14:04:46.441Z,46.60
2019-04-20T14:07:19.066Z,46.86
2019-04-20T14:09:49.118Z,47.08
2019-04-20T14:12:25.114Z,47.47
2019-04-20T14:14:48.962Z,47.58
2019-04-20T14:17:19.183Z,47.66
2019-04-20T14:19:49.408Z,47.75
2019-04-20T14:22:20.825Z,47.75
2019-04-20T14:24:51.073Z,47.65
2019-04-20T14:27:21.247Z,47.07
2019-04-20T14:29:51.036Z,47.04
2019-04-20T14:32:21.166Z,47.17
2019-04-20T14:34:51.216Z,47.21
2019-04-20T14:37:22.696Z,47.23
2019-04-20T14:39:52.408Z,47.13
2019-04-20T14:42:30.426Z,47.03
2019-04-20T14:44:52.260Z,46.97
2019-04-20T14:47:21.769Z,46.84
2019-04-20T14:49:51.134Z,46.68
2019-04-20T14:52:21.674Z,46.68
2019-04-20T14:54:51.233Z,46.71
2019-04-20T14:57:23.428Z,46.68
2019-04-20T14:59:55.895Z,46.50
2019-04-20T15:02:30.164Z,46.43
2019-04-20T15:05:01.286Z,46.29
2019-04-20T15:07:30.931Z,46.21
2019-04-20T15:10:00.771Z,46.17
2019-04-20T15:12:43.273Z,45.92
2019-04-20T15:15:02.990Z,45.77
2019-04-20T15:17:39.986Z,45.89
2019-04-20T15:20:19.635Z,45.80
2019-04-20T15:22:51.658Z,45.45
2019-04-20T15:25:21.404Z,45.16
2019-04-20T15:27:52.612Z,45.27
2019-04-20T15:30:22.373Z,45.17
2019-04-20T15:32:52.519Z,45.21
2019-04-20T15:35:26.327Z,45.39
2019-04-20T15:37:55.772Z,45.23
2019-04-20T15:40:41.359Z,45.00
2019-04-20T15:43:15.858Z,44.80
2019-04-20T15:45:41.424Z,44.33
2019-04-20T15:48:12.063Z,44.04
2019-04-20T15:50:41.705Z,43.96
2019-04-20T15:53:11.398Z,43.95
2019-04-20T15:55:43.445Z,43.74
2019-04-20T15:58:14.317Z,43.75
2019-04-20T16:00:44.706Z,43.58
2019-04-20T16:03:25.561Z,43.55
2019-04-20T16:05:56.913Z,43.37
2019-04-20T16:08:36.708Z,43.21
2019-04-20T16:11:07.003Z,43.07
2019-04-20T16:13:43.988Z,42.85
2019-04-20T16:16:12.170Z,42.53
2019-04-20T16:18:43.072Z,42.31
2019-04-20T16:21:19.626Z,42.05
2019-04-20T16:23:48.677Z,41.71
2019-04-20T16:26:21.788Z,41.51
2019-04-20T16:28:51.229Z,41.22
2019-04-20T16:31:20.776Z,41.01
2019-04-20T16:33:50.885Z,40.73
2019-04-20T16:36:22.728Z,40.50
2019-04-20T16:38:53.415Z,40.30
2019-04-20T16:41:24.318Z,40.13
2019-04-20T16:43:55.376Z,39.95
2019-04-20T16:46:25.822Z,39.59
2019-04-20T16:48:55.354Z,39.28
2019-04-20T16:51:25.139Z,39.09
2019-04-20T16:53:56.145Z,39.07
2019-04-20T16:56:26.554Z,38.98
2019-04-20T16:59:01.517Z,38.72
2019-04-20T17:01:29.676Z,38.50
2019-04-20T17:04:06.779Z,38.23
2019-04-20T17:06:31.989Z,37.96
2019-04-20T17:09:03.304Z,37.64
2019-04-20T17:11:33.975Z,37.23
2019-04-20T17:14:06.779Z,36.83
2019-04-20T17:16:37.554Z,36.24
2019-04-20T17:19:07.822Z,35.66
2019-04-20T17:21:40.149Z,35.09
2019-04-20T17:24:11.164Z,34.49
2019-04-20T17:26:45.207Z,34.16
2019-04-20T17:29:22.139Z,33.92
2019-04-20T17:32:05.615Z,33.72
2019-04-20T17:34:51.618Z,33.45
2019-04-20T17:37:06.721Z,33.25
2019-04-20T17:39:55.459Z,33.12
2019-04-20T17:42:25.027Z,32.94
2019-04-20T17:44:51.817Z,32.75
2019-04-20T17:47:30.340Z,32.63
2019-04-20T17:50:00.701Z,32.57
2019-04-20T17:52:36.592Z,32.52
2019-04-20T17:54:47.424Z,32.40
2019-04-20T17:57:17.231Z,32.17
2019-04-20T17:59:53.254Z,31.91
2019-04-20T18:03:00.606Z,31.77
2019-04-20T18:05:35.131Z,31.63
2019-04-20T18:08:10.373Z,31.42
2019-04-20T18:10:36.753Z,31.26
2019-04-20T18:12:51.970Z,31.13
2019-04-20T18:15:42.340Z,31.02
2019-04-20T18:18:17.302Z,30.89
2019-04-20T18:20:28.044Z,30.68
2019-04-20T18:22:58.792Z,30.49
2019-04-20T18:25:56.191Z,30.29
2019-04-20T18:28:15.218Z,30.10
2019-04-20T18:30:48.008Z,29.94
2019-04-20T18:33:09.597Z,29.73
2019-04-20T18:35:43.410Z,29.48
2019-04-20T18:38:14.621Z,29.34
2019-04-20T18:40:51.462Z,29.27
2019-04-20T18:43:18.267Z,29.21
2019-04-20T18:46:04.158Z,29.16
2019-04-20T18:48:40.491Z,29.04
2019-04-20T18:50:52.049Z,28.93
2019-04-20T18:53:31.772Z,28.92
2019-04-20T18:55:59.064Z,28.83
2019-04-20T18:58:27.069Z,28.75
2019-04-20T19:00:57.198Z,28.68
2019-04-20T19:03:32.709Z,28.61
2019-04-20T19:05:57.982Z,28.55
2019-04-20T19:08:35.234Z,28.50
2019-04-20T19:11:04.110Z,28.43
2019-04-20T19:13:49.228Z,28.33
2019-04-20T19:16:34.452Z,28.25
2019-04-20T19:19:12.523Z,28.10
2019-04-20T19:21:35.260Z,28.00
2019-04-20T19:24:10.966Z,27.92
2019-04-20T19:26:38.412Z,27.84
2019-04-20T19:29:16.077Z,27.74
2019-04-20T19:31:56.902Z,27.65
2019-04-20T19:34:31.509Z,27.54
2019-04-20T19:37:00.106Z,27.44
2019-04-20T19:39:30.324Z,27.32
2019-04-20T19:41:55.961Z,27.19
2019-04-20T19:44:32.871Z,27.06
2019-04-20T19:47:10.625Z,26.94
2019-04-20T19:49:36.161Z,26.80
2019-04-20T19:52:26.629Z,26.69
2019-04-20T19:54:46.535Z,26.61
2019-04-20T19:57:09.492Z,26.49
2019-04-20T19:59:37.790Z,26.34
2019-04-20T20:01:58.036Z,26.20
2019-04-20T20:04:27.469Z,26.06
2019-04-20T20:07:03.340Z,25.97
2019-04-20T20:09:28.087Z,25.89
2019-04-20T20:12:04.877Z,25.80
2019-04-20T20:14:36.490Z,25.71
2019-04-20T20:17:25.125Z,25.64
2019-04-20T20:19:55.968Z,25.56
2019-04-20T20:22:15.343Z,25.43
2019-04-20T20:24:33.377Z,25.31
2019-04-20T20:27:07.654Z,25.21
2019-04-20T20:29:41.054Z,25.16
2019-04-20T20:32:17.855Z,25.10
2019-04-20T20:34:42.133Z,25.05
2019-04-20T20:37:12.553Z,25.00
2019-04-20T20:39:40.886Z,24.97
2019-04-20T20:42:25.257Z,24.92
2019-04-20T20:44:51.796Z,24.87
2019-04-20T20:47:40.016Z,24.82
2019-04-20T20:50:08.297Z,24.77
2019-04-20T20:52:32.414Z,24.70
2019-04-20T20:54:56.350Z,24.65
2019-04-20T20:57:22.391Z,24.61
2019-04-20T20:59:55.312Z,24.55
2019-04-20T21:02:28.148Z,24.51
2019-04-20T21:04:51.505Z,24.44
2019-04-20T21:07:20.687Z,24.39
2019-04-20T21:09:50.390Z,24.34
2019-04-20T21:12:21.728Z,24.27
2019-04-20T21:14:51.044Z,24.22
2019-04-20T21:17:25.237Z,24.18
2019-04-20T21:20:07.337Z,24.17
2019-04-20T21:22:44.631Z,24.16
2019-04-20T21:24:56.774Z,24.15
2019-04-20T21:27:27.602Z,24.14
2019-04-20T21:29:58.718Z,24.10
2019-04-20T21:32:28.234Z,24.04
2019-04-20T21:35:02.679Z,24.00
2019-04-20T21:37:29.013Z,23.95
2019-04-20T21:40:01.464Z,23.90
2019-04-20T21:42:34.619Z,23.88
2019-04-20T21:45:07.012Z,23.84
2019-04-20T21:47:34.851Z,23.82
2019-04-20T21:50:17.034Z,23.77
2019-04-20T21:52:39.373Z,23.68
2019-04-20T21:55:08.027Z,23.60
2019-04-20T21:57:44.730Z,23.56
2019-04-20T22:00:23.789Z,23.52
2019-04-20T22:02:46.742Z,23.48
2019-04-20T22:05:15.556Z,23.44
2019-04-20T22:07:46.418Z,23.38
2019-04-20T22:10:18.966Z,23.34
2019-04-20T22:12:53.544Z,23.30
2019-04-20T22:15:24.916Z,23.25
2019-04-20T22:17:48.873Z,23.23
2019-04-20T22:20:28.836Z,23.19
2019-04-20T22:23:02.682Z,23.18
2019-04-20T22:25:39.271Z,23.16
2019-04-20T22:27:51.604Z,23.17
2019-04-20T22:30:22.062Z,23.18
2019-04-20T22:32:53.712Z,23.15
2019-04-20T22:35:24.399Z,23.12
2019-04-20T22:38:05.221Z,23.08
2019-04-20T22:40:33.272Z,23.03
2019-04-20T22:43:02.017Z,22.96
2019-04-20T22:45:33.974Z,22.94
2019-04-20T22:48:08.372Z,22.93
2019-04-20T22:50:51.041Z,22.92
2019-04-20T22:53:24.186Z,22.89
2019-04-20T22:56:01.435Z,22.85
2019-04-20T22:58:23.659Z,22.80
2019-04-20T23:00:51.461Z,22.72
2019-04-20T23:03:12.622Z,22.66
2019-04-20T23:05:42.759Z,22.63
2019-04-20T23:08:12.971Z,22.60
2019-04-20T23:10:45.969Z,22.55
2019-04-20T23:13:13.796Z,22.50
2019-04-20T23:15:47.661Z,22.49
2019-04-20T23:18:14.140Z,22.50
2019-04-20T23:20:44.124Z,22.51
2019-04-20T23:23:16.978Z,22.51
2019-04-20T23:25:45.147Z,22.50
2019-04-20T23:28:17.989Z,22.47
2019-04-20T23:30:47.343Z,22.43
2019-04-20T23:33:18.063Z,22.43
2019-04-20T23:35:52.983Z,22.41
2019-04-20T23:38:22.549Z,22.38
2019-04-20T23:40:50.055Z,22.34
2019-04-20T23:43:30.321Z,22.27
2019-04-20T23:46:23.974Z,22.20
2019-04-20T23:48:50.453Z,22.09
2019-04-20T23:51:40.688Z,21.94
2019-04-20T23:53:59.622Z,21.93
2019-04-20T23:56:23.601Z,21.96
2019-04-20T23:58:56.228Z,21.99
